Terminal Aerodrome Forecast
Issued by NWS

Home | Current Version | Previous Version | Text Only | Print | Product List | Glossary On
Versions: 1 2 3 4 5 6 7 8 9 10 11 12
000
FTUS45 KGJT 061144
TAFMTJ
TAF
KMTJ 061144Z 0612/0712 13009KT P6SM BKN120
     FM061700 19010KT P6SM BKN250
     FM061900 21015G25KT P6SM VCTS BKN250CB
     FM070000 20016G35KT P6SM VCSH BKN120
     FM070500 17010KT P6SM VCSH BKN090
     FM070800 13006KT P6SM VCSH BKN130=

USA.gov is the U.S. government's official web portal to all federal, state and local government web resources and services.